sensor_id;sensor_type;location;lat;lon;timestamp;temperature;humidity
20700;DHT22;10511;51.232;9.420;2023-08-06T00:01:52;16.60;99.90
20700;DHT22;10511;51.232;9.420;2023-08-06T00:04:19;16.50;99.90
20700;DHT22;10511;51.232;9.420;2023-08-06T00:06:47;16.50;99.90
20700;DHT22;10511;51.232;9.420;2023-08-06T00:09:14;16.60;99.90
20700;DHT22;10511;51.232;9.420;2023-08-06T00:11:41;16.70;99.90
20700;DHT22;10511;51.232;9.420;2023-08-06T00:14:09;16.70;99.90
20700;DHT22;10511;51.232;9.420;2023-08-06T00:16:36;16.70;99.90
20700;DHT22;10511;51.232;9.420;2023-08-06T00:19:03;16.70;99.90
20700;DHT22;10511;51.232;9.420;2023-08-06T00:21:30;16.50;99.90
20700;DHT22;10511;51.232;9.420;2023-08-06T00:23:58;16.30;99.90
20700;DHT22;10511;51.232;9.420;2023-08-06T00:26:25;16.00;99.90
20700;DHT22;10511;51.232;9.420;2023-08-06T00:28:52;15.80;99.90
20700;DHT22;10511;51.232;9.420;2023-08-06T00:31:19;15.60;99.90
20700;DHT22;10511;51.232;9.420;2023-08-06T00:33:46;15.50;99.90
20700;DHT22;10511;51.232;9.420;2023-08-06T00:36:13;15.40;99.90
20700;DHT22;10511;51.232;9.420;2023-08-06T00:38:40;15.40;99.90
20700;DHT22;10511;51.232;9.420;2023-08-06T00:41:08;15.50;99.90
20700;DHT22;10511;51.232;9.420;2023-08-06T00:43:35;15.60;99.90
20700;DHT22;10511;51.232;9.420;2023-08-06T00:46:02;15.60;99.90
20700;DHT22;10511;51.232;9.420;2023-08-06T00:48:29;15.60;99.90
20700;DHT22;10511;51.232;9.420;2023-08-06T00:50:56;15.70;99.90
20700;DHT22;10511;51.232;9.420;2023-08-06T00:53:23;15.70;99.90
20700;DHT22;10511;51.232;9.420;2023-08-06T00:55:50;15.70;99.90
20700;DHT22;10511;51.232;9.420;2023-08-06T00:58:19;15.90;99.90
20700;DHT22;10511;51.232;9.420;2023-08-06T01:00:46;15.80;99.90
20700;DHT22;10511;51.232;9.420;2023-08-06T01:03:13;15.80;99.90
20700;DHT22;10511;51.232;9.420;2023-08-06T01:05:41;15.90;99.90
20700;DHT22;10511;51.232;9.420;2023-08-06T01:08:19;16.00;99.90
20700;DHT22;10511;51.232;9.420;2023-08-06T01:10:58;16.00;99.90
20700;DHT22;10511;51.232;9.420;2023-08-06T01:13:33;16.00;99.90
20700;DHT22;10511;51.232;9.420;2023-08-06T01:16:05;16.00;99.90
20700;DHT22;10511;51.232;9.420;2023-08-06T01:18:33;15.70;99.90
20700;DHT22;10511;51.232;9.420;2023-08-06T01:21:02;15.60;99.90
20700;DHT22;10511;51.232;9.420;2023-08-06T01:23:29;15.40;99.90
20700;DHT22;10511;51.232;9.420;2023-08-06T01:26:00;15.50;99.90
20700;DHT22;10511;51.232;9.420;2023-08-06T01:28:37;15.50;99.90
20700;DHT22;10511;51.232;9.420;2023-08-06T01:31:09;15.60;99.90
20700;DHT22;10511;51.232;9.420;2023-08-06T01:33:39;15.70;99.90
20700;DHT22;10511;51.232;9.420;2023-08-06T01:36:10;15.90;99.90
20700;DHT22;10511;51.232;9.420;2023-08-06T01:38:37;15.90;99.90
20700;DHT22;10511;51.232;9.420;2023-08-06T01:41:04;15.90;99.90
20700;DHT22;10511;51.232;9.420;2023-08-06T01:43:31;15.90;99.90
20700;DHT22;10511;51.232;9.420;2023-08-06T01:45:58;15.90;99.90
20700;DHT22;10511;51.232;9.420;2023-08-06T01:48:25;16.10;99.90
20700;DHT22;10511;51.232;9.420;2023-08-06T01:50:52;16.30;99.90
20700;DHT22;10511;51.232;9.420;2023-08-06T01:53:20;16.30;99.90
20700;DHT22;10511;51.232;9.420;2023-08-06T01:55:48;16.30;99.90
20700;DHT22;10511;51.232;9.420;2023-08-06T01:58:15;16.20;99.90
20700;DHT22;10511;51.232;9.420;2023-08-06T02:00:42;16.10;99.90
20700;DHT22;10511;51.232;9.420;2023-08-06T02:03:09;16.10;99.90
20700;DHT22;10511;51.232;9.420;2023-08-06T02:05:36;16.20;99.90
20700;DHT22;10511;51.232;9.420;2023-08-06T02:08:03;16.10;99.90
20700;DHT22;10511;51.232;9.420;2023-08-06T02:10:32;16.10;99.90
20700;DHT22;10511;51.232;9.420;2023-08-06T02:12:59;15.80;99.90
20700;DHT22;10511;51.232;9.420;2023-08-06T02:15:26;15.70;99.90
20700;DHT22;10511;51.232;9.420;2023-08-06T02:17:53;15.50;99.90
20700;DHT22;10511;51.232;9.420;2023-08-06T02:20:20;15.40;99.90
20700;DHT22;10511;51.232;9.420;2023-08-06T02:22:47;15.30;99.90
20700;DHT22;10511;51.232;9.420;2023-08-06T02:25:14;15.40;99.90
20700;DHT22;10511;51.232;9.420;2023-08-06T02:27:42;15.50;99.90
20700;DHT22;10511;51.232;9.420;2023-08-06T02:30:09;15.60;99.90
20700;DHT22;10511;51.232;9.420;2023-08-06T02:32:36;15.60;99.90
20700;DHT22;10511;51.232;9.420;2023-08-06T02:35:04;15.70;99.90
20700;DHT22;10511;51.232;9.420;2023-08-06T02:37:33;15.50;99.90
20700;DHT22;10511;51.232;9.420;2023-08-06T02:40:00;15.40;99.90
20700;DHT22;10511;51.232;9.420;2023-08-06T02:42:27;15.30;99.90
20700;DHT22;10511;51.232;9.420;2023-08-06T02:44:56;15.10;99.90
20700;DHT22;10511;51.232;9.420;2023-08-06T02:47:23;14.90;99.90
20700;DHT22;10511;51.232;9.420;2023-08-06T02:49:50;14.80;99.90
20700;DHT22;10511;51.232;9.420;2023-08-06T02:52:17;14.70;99.90
20700;DHT22;10511;51.232;9.420;2023-08-06T02:54:44;14.60;99.90
20700;DHT22;10511;51.232;9.420;2023-08-06T02:57:11;14.60;99.90
20700;DHT22;10511;51.232;9.420;2023-08-06T02:59:38;14.60;99.90
20700;DHT22;10511;51.232;9.420;2023-08-06T03:02:06;14.60;99.90
20700;DHT22;10511;51.232;9.420;2023-08-06T03:04:33;14.50;99.90
20700;DHT22;10511;51.232;9.420;2023-08-06T03:07:00;14.50;99.90
20700;DHT22;10511;51.232;9.420;2023-08-06T03:09:28;14.50;99.90
20700;DHT22;10511;51.232;9.420;2023-08-06T03:11:55;14.70;99.90
20700;DHT22;10511;51.232;9.420;2023-08-06T03:14:22;14.90;99.90
20700;DHT22;10511;51.232;9.420;2023-08-06T03:16:49;14.80;99.90
20700;DHT22;10511;51.232;9.420;2023-08-06T03:19:17;14.80;99.90
20700;DHT22;10511;51.232;9.420;2023-08-06T03:21:44;14.70;99.90
20700;DHT22;10511;51.232;9.420;2023-08-06T03:24:13;14.90;99.90
20700;DHT22;10511;51.232;9.420;2023-08-06T03:26:40;14.90;99.90
20700;DHT22;10511;51.232;9.420;2023-08-06T03:29:07;15.00;99.90
20700;DHT22;10511;51.232;9.420;2023-08-06T03:31:34;15.10;99.90
20700;DHT22;10511;51.232;9.420;2023-08-06T03:34:01;15.20;99.90
20700;DHT22;10511;51.232;9.420;2023-08-06T03:36:29;15.20;99.90
20700;DHT22;10511;51.232;9.420;2023-08-06T03:38:56;15.30;99.90
20700;DHT22;10511;51.232;9.420;2023-08-06T03:41:23;15.30;99.90
20700;DHT22;10511;51.232;9.420;2023-08-06T03:43:50;15.30;99.90
20700;DHT22;10511;51.232;9.420;2023-08-06T03:46:17;15.30;99.90
20700;DHT22;10511;51.232;9.420;2023-08-06T03:48:44;15.40;99.90
20700;DHT22;10511;51.232;9.420;2023-08-06T03:51:11;15.60;99.90
20700;DHT22;10511;51.232;9.420;2023-08-06T03:53:39;15.60;99.90
20700;DHT22;10511;51.232;9.420;2023-08-06T03:56:07;15.70;99.90
20700;DHT22;10511;51.232;9.420;2023-08-06T03:58:34;15.70;99.90
20700;DHT22;10511;51.232;9.420;2023-08-06T04:01:01;15.70;99.90
20700;DHT22;10511;51.232;9.420;2023-08-06T04:03:29;15.80;99.90
20700;DHT22;10511;51.232;9.420;2023-08-06T04:05:56;15.70;99.90
20700;DHT22;10511;51.232;9.420;2023-08-06T04:08:23;15.80;99.90
20700;DHT22;10511;51.232;9.420;2023-08-06T04:10:52;15.80;99.90
20700;DHT22;10511;51.232;9.420;2023-08-06T04:13:19;15.70;99.90
20700;DHT22;10511;51.232;9.420;2023-08-06T04:15:46;15.70;99.90
20700;DHT22;10511;51.232;9.420;2023-08-06T04:18:14;15.80;99.90
20700;DHT22;10511;51.232;9.420;2023-08-06T04:20:44;15.90;99.90
20700;DHT22;10511;51.232;9.420;2023-08-06T04:23:11;16.00;99.90
20700;DHT22;10511;51.232;9.420;2023-08-06T04:25:38;15.90;99.90
20700;DHT22;10511;51.232;9.420;2023-08-06T04:28:06;15.80;99.90
20700;DHT22;10511;51.232;9.420;2023-08-06T04:30:33;15.80;99.90
20700;DHT22;10511;51.232;9.420;2023-08-06T04:33:00;15.80;99.90
20700;DHT22;10511;51.232;9.420;2023-08-06T04:35:27;15.60;99.90
20700;DHT22;10511;51.232;9.420;2023-08-06T04:37:54;15.60;99.90
20700;DHT22;10511;51.232;9.420;2023-08-06T04:40:21;15.50;99.90
20700;DHT22;10511;51.232;9.420;2023-08-06T04:42:48;15.40;99.90
20700;DHT22;10511;51.232;9.420;2023-08-06T04:45:17;15.30;99.90
20700;DHT22;10511;51.232;9.420;2023-08-06T04:47:43;15.10;99.90
20700;DHT22;10511;51.232;9.420;2023-08-06T04:50:10;14.90;99.90
20700;DHT22;10511;51.232;9.420;2023-08-06T04:52:37;14.80;99.90
20700;DHT22;10511;51.232;9.420;2023-08-06T04:55:05;14.70;99.90
20700;DHT22;10511;51.232;9.420;2023-08-06T04:57:32;14.70;99.90
20700;DHT22;10511;51.232;9.420;2023-08-06T04:59:59;14.70;99.90
20700;DHT22;10511;51.232;9.420;2023-08-06T05:02:27;14.70;99.90
20700;DHT22;10511;51.232;9.420;2023-08-06T05:04:54;14.80;99.90
20700;DHT22;10511;51.232;9.420;2023-08-06T05:07:21;14.90;99.90
20700;DHT22;10511;51.232;9.420;2023-08-06T05:09:48;14.90;99.90
20700;DHT22;10511;51.232;9.420;2023-08-06T05:12:15;15.00;99.90
20700;DHT22;10511;51.232;9.420;2023-08-06T05:14:42;15.00;99.90
20700;DHT22;10511;51.232;9.420;2023-08-06T05:17:09;14.90;99.90
20700;DHT22;10511;51.232;9.420;2023-08-06T05:19:37;14.90;99.90
20700;DHT22;10511;51.232;9.420;2023-08-06T05:22:04;15.00;99.90
20700;DHT22;10511;51.232;9.420;2023-08-06T05:24:31;15.10;99.90
20700;DHT22;10511;51.232;9.420;2023-08-06T05:26:58;15.10;99.90
20700;DHT22;10511;51.232;9.420;2023-08-06T05:29:25;15.20;99.90
20700;DHT22;10511;51.232;9.420;2023-08-06T05:31:52;15.20;99.90
20700;DHT22;10511;51.232;9.420;2023-08-06T05:34:19;15.20;99.90
20700;DHT22;10511;51.232;9.420;2023-08-06T05:36:48;15.20;99.90
20700;DHT22;10511;51.232;9.420;2023-08-06T05:39:14;15.20;99.90
20700;DHT22;10511;51.232;9.420;2023-08-06T05:41:41;15.10;99.90
20700;DHT22;10511;51.232;9.420;2023-08-06T05:44:08;14.90;99.90
20700;DHT22;10511;51.232;9.420;2023-08-06T05:46:35;14.90;99.90
20700;DHT22;10511;51.232;9.420;2023-08-06T05:49:02;14.80;99.90
20700;DHT22;10511;51.232;9.420;2023-08-06T05:51:30;14.80;99.90
20700;DHT22;10511;51.232;9.420;2023-08-06T05:53:58;14.90;99.90
20700;DHT22;10511;51.232;9.420;2023-08-06T05:56:25;14.80;99.90
20700;DHT22;10511;51.232;9.420;2023-08-06T05:58:52;14.90;99.90
20700;DHT22;10511;51.232;9.420;2023-08-06T06:01:19;14.90;99.90
20700;DHT22;10511;51.232;9.420;2023-08-06T06:03:46;14.90;99.90
20700;DHT22;10511;51.232;9.420;2023-08-06T06:06:13;14.90;99.90
20700;DHT22;10511;51.232;9.420;2023-08-06T06:08:40;15.00;99.90
20700;DHT22;10511;51.232;9.420;2023-08-06T06:11:09;15.00;99.90
20700;DHT22;10511;51.232;9.420;2023-08-06T06:13:36;15.00;99.90
20700;DHT22;10511;51.232;9.420;2023-08-06T06:16:03;15.00;99.90
20700;DHT22;10511;51.232;9.420;2023-08-06T06:18:31;15.00;99.90
20700;DHT22;10511;51.232;9.420;2023-08-06T06:20:58;15.00;99.90
20700;DHT22;10511;51.232;9.420;2023-08-06T06:23:24;15.10;99.90
20700;DHT22;10511;51.232;9.420;2023-08-06T06:25:51;15.20;99.90
20700;DHT22;10511;51.232;9.420;2023-08-06T06:28:20;15.20;99.90
20700;DHT22;10511;51.232;9.420;2023-08-06T06:30:48;15.20;99.90
20700;DHT22;10511;51.232;9.420;2023-08-06T06:33:15;15.20;99.90
20700;DHT22;10511;51.232;9.420;2023-08-06T06:35:42;15.20;99.90
20700;DHT22;10511;51.232;9.420;2023-08-06T06:38:09;15.20;99.90
20700;DHT22;10511;51.232;9.420;2023-08-06T06:40:36;15.30;99.90
20700;DHT22;10511;51.232;9.420;2023-08-06T06:43:03;15.30;99.90
20700;DHT22;10511;51.232;9.420;2023-08-06T06:45:31;15.40;99.90
20700;DHT22;10511;51.232;9.420;2023-08-06T06:47:58;15.40;99.90
20700;DHT22;10511;51.232;9.420;2023-08-06T06:50:25;15.40;99.90
20700;DHT22;10511;51.232;9.420;2023-08-06T06:52:52;15.40;99.90
20700;DHT22;10511;51.232;9.420;2023-08-06T06:55:19;15.40;99.90
20700;DHT22;10511;51.232;9.420;2023-08-06T06:57:46;15.40;99.90
20700;DHT22;10511;51.232;9.420;2023-08-06T07:00:14;15.40;99.90
20700;DHT22;10511;51.232;9.420;2023-08-06T07:02:42;15.50;99.90
20700;DHT22;10511;51.232;9.420;2023-08-06T07:05:09;15.60;99.90
20700;DHT22;10511;51.232;9.420;2023-08-06T07:07:36;15.70;99.90
20700;DHT22;10511;51.232;9.420;2023-08-06T07:10:04;15.70;99.90
20700;DHT22;10511;51.232;9.420;2023-08-06T07:12:31;15.80;99.90
20700;DHT22;10511;51.232;9.420;2023-08-06T07:14:58;15.90;99.90
20700;DHT22;10511;51.232;9.420;2023-08-06T07:17:25;15.90;99.90
20700;DHT22;10511;51.232;9.420;2023-08-06T07:19:53;16.00;99.90
20700;DHT22;10511;51.232;9.420;2023-08-06T07:22:20;16.10;99.90
20700;DHT22;10511;51.232;9.420;2023-08-06T07:24:47;16.10;99.90
20700;DHT22;10511;51.232;9.420;2023-08-06T07:27:14;16.00;99.90
20700;DHT22;10511;51.232;9.420;2023-08-06T07:29:41;15.90;99.90
20700;DHT22;10511;51.232;9.420;2023-08-06T07:32:08;15.90;99.90
20700;DHT22;10511;51.232;9.420;2023-08-06T07:34:35;15.80;99.90
20700;DHT22;10511;51.232;9.420;2023-08-06T07:37:03;15.80;99.90
20700;DHT22;10511;51.232;9.420;2023-08-06T07:39:31;16.00;99.90
20700;DHT22;10511;51.232;9.420;2023-08-06T07:41:58;16.10;99.90
20700;DHT22;10511;51.232;9.420;2023-08-06T07:44:25;16.20;99.90
20700;DHT22;10511;51.232;9.420;2023-08-06T07:46:52;16.40;99.90
20700;DHT22;10511;51.232;9.420;2023-08-06T07:49:19;16.40;99.90
20700;DHT22;10511;51.232;9.420;2023-08-06T07:51:46;16.50;99.90
20700;DHT22;10511;51.232;9.420;2023-08-06T07:54:14;16.60;99.90
20700;DHT22;10511;51.232;9.420;2023-08-06T07:56:41;16.60;99.90
20700;DHT22;10511;51.232;9.420;2023-08-06T07:59:08;16.60;99.90
20700;DHT22;10511;51.232;9.420;2023-08-06T08:01:35;16.70;99.90
20700;DHT22;10511;51.232;9.420;2023-08-06T08:04:02;16.60;99.90
20700;DHT22;10511;51.232;9.420;2023-08-06T08:06:30;16.70;99.90
20700;DHT22;10511;51.232;9.420;2023-08-06T08:08:57;16.70;99.90
20700;DHT22;10511;51.232;9.420;2023-08-06T08:11:25;16.60;99.90
20700;DHT22;10511;51.232;9.420;2023-08-06T08:13:52;16.60;99.90
20700;DHT22;10511;51.232;9.420;2023-08-06T08:16:19;16.60;99.90
20700;DHT22;10511;51.232;9.420;2023-08-06T08:18:46;16.70;99.90
20700;DHT22;10511;51.232;9.420;2023-08-06T08:21:13;16.80;99.90
20700;DHT22;10511;51.232;9.420;2023-08-06T08:23:40;16.80;99.90
20700;DHT22;10511;51.232;9.420;2023-08-06T08:26:07;16.90;99.90
20700;DHT22;10511;51.232;9.420;2023-08-06T08:28:36;16.90;99.90
20700;DHT22;10511;51.232;9.420;2023-08-06T08:31:03;17.00;99.90
20700;DHT22;10511;51.232;9.420;2023-08-06T08:33:30;17.20;99.90
20700;DHT22;10511;51.232;9.420;2023-08-06T08:35:56;17.30;99.90
20700;DHT22;10511;51.232;9.420;2023-08-06T08:38:23;17.30;99.90
20700;DHT22;10511;51.232;9.420;2023-08-06T08:40:52;17.30;99.90
20700;DHT22;10511;51.232;9.420;2023-08-06T08:43:21;17.40;99.90
20700;DHT22;10511;51.232;9.420;2023-08-06T08:45:51;17.40;99.90
20700;DHT22;10511;51.232;9.420;2023-08-06T08:48:21;17.50;99.90
20700;DHT22;10511;51.232;9.420;2023-08-06T08:50:49;17.50;99.90
20700;DHT22;10511;51.232;9.420;2023-08-06T08:53:17;17.50;99.90
20700;DHT22;10511;51.232;9.420;2023-08-06T08:55:46;17.40;99.90
20700;DHT22;10511;51.232;9.420;2023-08-06T08:58:14;17.50;99.90
20700;DHT22;10511;51.232;9.420;2023-08-06T09:00:42;17.50;99.90
20700;DHT22;10511;51.232;9.420;2023-08-06T09:03:10;17.40;99.90
20700;DHT22;10511;51.232;9.420;2023-08-06T09:05:40;17.50;99.90
20700;DHT22;10511;51.232;9.420;2023-08-06T09:08:11;17.50;99.90
20700;DHT22;10511;51.232;9.420;2023-08-06T09:10:39;17.50;99.90
20700;DHT22;10511;51.232;9.420;2023-08-06T09:13:07;17.60;99.90
20700;DHT22;10511;51.232;9.420;2023-08-06T09:15:35;17.60;99.90
20700;DHT22;10511;51.232;9.420;2023-08-06T09:18:10;17.60;99.90
20700;DHT22;10511;51.232;9.420;2023-08-06T09:20:38;17.70;99.90
20700;DHT22;10511;51.232;9.420;2023-08-06T09:23:07;17.80;99.90
20700;DHT22;10511;51.232;9.420;2023-08-06T09:25:37;18.00;99.90
20700;DHT22;10511;51.232;9.420;2023-08-06T09:28:53;18.10;99.90
20700;DHT22;10511;51.232;9.420;2023-08-06T09:31:20;18.10;99.90
20700;DHT22;10511;51.232;9.420;2023-08-06T09:33:48;18.30;99.90
20700;DHT22;10511;51.232;9.420;2023-08-06T09:36:15;18.30;99.90
20700;DHT22;10511;51.232;9.420;2023-08-06T09:38:43;18.40;99.90
20700;DHT22;10511;51.232;9.420;2023-08-06T09:41:10;18.70;99.90
20700;DHT22;10511;51.232;9.420;2023-08-06T09:43:40;18.90;99.90
20700;DHT22;10511;51.232;9.420;2023-08-06T09:46:12;18.90;99.90
20700;DHT22;10511;51.232;9.420;2023-08-06T09:48:40;18.90;99.90
20700;DHT22;10511;51.232;9.420;2023-08-06T09:51:09;18.70;99.90
20700;DHT22;10511;51.232;9.420;2023-08-06T09:53:37;18.60;99.90
20700;DHT22;10511;51.232;9.420;2023-08-06T09:56:05;18.60;99.90
20700;DHT22;10511;51.232;9.420;2023-08-06T09:58:32;18.80;99.90
20700;DHT22;10511;51.232;9.420;2023-08-06T10:01:00;18.80;99.90
20700;DHT22;10511;51.232;9.420;2023-08-06T10:03:29;19.00;99.90
20700;DHT22;10511;51.232;9.420;2023-08-06T10:05:58;19.10;99.90
20700;DHT22;10511;51.232;9.420;2023-08-06T10:08:29;19.30;99.90
20700;DHT22;10511;51.232;9.420;2023-08-06T10:10:56;19.40;99.90
20700;DHT22;10511;51.232;9.420;2023-08-06T10:13:24;19.40;99.90
20700;DHT22;10511;51.232;9.420;2023-08-06T10:15:52;19.50;99.90
20700;DHT22;10511;51.232;9.420;2023-08-06T10:18:20;19.70;99.90
20700;DHT22;10511;51.232;9.420;2023-08-06T10:20:48;19.80;99.90
20700;DHT22;10511;51.232;9.420;2023-08-06T10:23:15;20.00;99.90
20700;DHT22;10511;51.232;9.420;2023-08-06T10:25:53;20.20;99.90
20700;DHT22;10511;51.232;9.420;2023-08-06T10:28:21;20.30;99.90
20700;DHT22;10511;51.232;9.420;2023-08-06T10:30:48;20.50;99.90
20700;DHT22;10511;51.232;9.420;2023-08-06T10:33:19;20.60;99.90
20700;DHT22;10511;51.232;9.420;2023-08-06T10:35:47;20.70;99.90
20700;DHT22;10511;51.232;9.420;2023-08-06T10:38:16;20.90;99.90
20700;DHT22;10511;51.232;9.420;2023-08-06T10:40:52;20.90;99.90
20700;DHT22;10511;51.232;9.420;2023-08-06T10:43:28;21.00;99.90
20700;DHT22;10511;51.232;9.420;2023-08-06T10:45:56;21.10;99.90
20700;DHT22;10511;51.232;9.420;2023-08-06T10:48:29;21.10;99.90
20700;DHT22;10511;51.232;9.420;2023-08-06T10:50:57;21.00;99.90
20700;DHT22;10511;51.232;9.420;2023-08-06T10:53:24;21.00;99.90
20700;DHT22;10511;51.232;9.420;2023-08-06T10:55:53;21.00;99.90
20700;DHT22;10511;51.232;9.420;2023-08-06T10:58:20;21.10;99.90
20700;DHT22;10511;51.232;9.420;2023-08-06T11:00:47;21.10;99.90
20700;DHT22;10511;51.232;9.420;2023-08-06T11:03:14;21.20;99.90
20700;DHT22;10511;51.232;9.420;2023-08-06T11:05:48;21.30;99.90
20700;DHT22;10511;51.232;9.420;2023-08-06T11:08:25;21.50;99.90
20700;DHT22;10511;51.232;9.420;2023-08-06T11:10:53;21.40;99.90
20700;DHT22;10511;51.232;9.420;2023-08-06T11:13:23;21.60;99.90
20700;DHT22;10511;51.232;9.420;2023-08-06T11:15:53;21.60;99.90
20700;DHT22;10511;51.232;9.420;2023-08-06T11:18:20;21.60;99.90
20700;DHT22;10511;51.232;9.420;2023-08-06T11:20:47;21.50;99.90
20700;DHT22;10511;51.232;9.420;2023-08-06T11:23:14;21.60;99.90
20700;DHT22;10511;51.232;9.420;2023-08-06T11:25:44;21.60;99.90
20700;DHT22;10511;51.232;9.420;2023-08-06T11:28:13;21.70;99.90
20700;DHT22;10511;51.232;9.420;2023-08-06T11:30:40;21.80;99.90
20700;DHT22;10511;51.232;9.420;2023-08-06T11:33:07;21.90;99.90
20700;DHT22;10511;51.232;9.420;2023-08-06T11:35:35;22.00;99.90
20700;DHT22;10511;51.232;9.420;2023-08-06T11:38:02;21.70;99.90
20700;DHT22;10511;51.232;9.420;2023-08-06T11:40:30;21.40;99.90
20700;DHT22;10511;51.232;9.420;2023-08-06T11:42:58;21.20;99.90
20700;DHT22;10511;51.232;9.420;2023-08-06T11:45:27;21.00;99.90
20700;DHT22;10511;51.232;9.420;2023-08-06T11:47:54;21.00;99.90
20700;DHT22;10511;51.232;9.420;2023-08-06T11:50:25;21.30;99.90
20700;DHT22;10511;51.232;9.420;2023-08-06T11:52:57;21.70;99.90
20700;DHT22;10511;51.232;9.420;2023-08-06T11:55:26;21.90;99.90
20700;DHT22;10511;51.232;9.420;2023-08-06T11:57:55;21.80;99.90
20700;DHT22;10511;51.232;9.420;2023-08-06T12:00:23;21.60;99.90
20700;DHT22;10511;51.232;9.420;2023-08-06T12:02:52;21.30;99.90
20700;DHT22;10511;51.232;9.420;2023-08-06T12:05:21;21.00;99.90
20700;DHT22;10511;51.232;9.420;2023-08-06T12:07:51;20.80;99.90
20700;DHT22;10511;51.232;9.420;2023-08-06T12:10:19;20.70;99.90
20700;DHT22;10511;51.232;9.420;2023-08-06T12:12:46;20.80;99.90
20700;DHT22;10511;51.232;9.420;2023-08-06T12:15:14;21.30;99.90
20700;DHT22;10511;51.232;9.420;2023-08-06T12:17:41;21.50;99.90
20700;DHT22;10511;51.232;9.420;2023-08-06T12:20:09;21.70;99.90
20700;DHT22;10511;51.232;9.420;2023-08-06T12:22:37;21.50;99.90
20700;DHT22;10511;51.232;9.420;2023-08-06T12:25:07;21.10;99.90
20700;DHT22;10511;51.232;9.420;2023-08-06T12:27:34;20.90;99.90
20700;DHT22;10511;51.232;9.420;2023-08-06T12:30:01;20.80;99.90
20700;DHT22;10511;51.232;9.420;2023-08-06T12:32:30;20.80;99.90
20700;DHT22;10511;51.232;9.420;2023-08-06T12:34:57;20.70;99.90
20700;DHT22;10511;51.232;9.420;2023-08-06T12:37:26;20.80;99.90
20700;DHT22;10511;51.232;9.420;2023-08-06T12:39:53;20.70;99.90
20700;DHT22;10511;51.232;9.420;2023-08-06T12:42:20;20.70;99.90
20700;DHT22;10511;51.232;9.420;2023-08-06T12:44:48;20.60;99.90
20700;DHT22;10511;51.232;9.420;2023-08-06T12:47:16;20.40;99.90
20700;DHT22;10511;51.232;9.420;2023-08-06T12:49:43;20.20;99.90
20700;DHT22;10511;51.232;9.420;2023-08-06T12:52:10;19.80;99.90
20700;DHT22;10511;51.232;9.420;2023-08-06T12:54:40;19.40;99.90
20700;DHT22;10511;51.232;9.420;2023-08-06T12:57:07;19.40;99.90
20700;DHT22;10511;51.232;9.420;2023-08-06T12:59:34;19.30;99.90
20700;DHT22;10511;51.232;9.420;2023-08-06T13:02:02;19.10;99.90
20700;DHT22;10511;51.232;9.420;2023-08-06T13:04:29;18.90;99.90
20700;DHT22;10511;51.232;9.420;2023-08-06T13:06:57;18.80;99.90
20700;DHT22;10511;51.232;9.420;2023-08-06T13:09:24;18.70;99.90
20700;DHT22;10511;51.232;9.420;2023-08-06T13:11:53;18.50;99.90
20700;DHT22;10511;51.232;9.420;2023-08-06T13:14:20;18.40;99.90
20700;DHT22;10511;51.232;9.420;2023-08-06T13:16:47;18.60;99.90
20700;DHT22;10511;51.232;9.420;2023-08-06T13:19:14;18.60;99.90
20700;DHT22;10511;51.232;9.420;2023-08-06T13:22:06;18.70;99.90
20700;DHT22;10511;51.232;9.420;2023-08-06T13:24:34;18.80;99.90
20700;DHT22;10511;51.232;9.420;2023-08-06T13:27:02;18.90;99.90
20700;DHT22;10511;51.232;9.420;2023-08-06T13:29:29;19.00;99.90
20700;DHT22;10511;51.232;9.420;2023-08-06T13:31:56;19.20;99.90
20700;DHT22;10511;51.232;9.420;2023-08-06T13:34:23;19.30;99.90
20700;DHT22;10511;51.232;9.420;2023-08-06T13:36:50;19.40;99.90
20700;DHT22;10511;51.232;9.420;2023-08-06T13:39:17;19.20;99.90
20700;DHT22;10511;51.232;9.420;2023-08-06T13:41:45;19.10;99.90
20700;DHT22;10511;51.232;9.420;2023-08-06T13:44:13;19.20;99.90
20700;DHT22;10511;51.232;9.420;2023-08-06T13:46:42;19.20;99.90
20700;DHT22;10511;51.232;9.420;2023-08-06T13:49:09;19.20;99.90
20700;DHT22;10511;51.232;9.420;2023-08-06T13:51:36;19.20;99.90
20700;DHT22;10511;51.232;9.420;2023-08-06T13:54:04;19.10;99.90
20700;DHT22;10511;51.232;9.420;2023-08-06T13:56:32;19.20;99.90
20700;DHT22;10511;51.232;9.420;2023-08-06T13:58:59;19.30;99.90
20700;DHT22;10511;51.232;9.420;2023-08-06T14:01:28;19.20;99.90
20700;DHT22;10511;51.232;9.420;2023-08-06T14:03:55;19.20;99.90
20700;DHT22;10511;51.232;9.420;2023-08-06T14:06:22;19.10;99.90
20700;DHT22;10511;51.232;9.420;2023-08-06T14:08:49;19.00;99.90
20700;DHT22;10511;51.232;9.420;2023-08-06T14:11:16;18.80;99.90
20700;DHT22;10511;51.232;9.420;2023-08-06T14:13:43;18.60;99.90
20700;DHT22;10511;51.232;9.420;2023-08-06T14:16:10;18.40;99.90
20700;DHT22;10511;51.232;9.420;2023-08-06T14:18:39;18.30;99.90
20700;DHT22;10511;51.232;9.420;2023-08-06T14:21:07;18.30;99.90
20700;DHT22;10511;51.232;9.420;2023-08-06T14:23:34;18.10;99.90
20700;DHT22;10511;51.232;9.420;2023-08-06T14:26:01;18.00;99.90
20700;DHT22;10511;51.232;9.420;2023-08-06T14:28:28;18.10;99.90
20700;DHT22;10511;51.232;9.420;2023-08-06T14:30:55;17.90;99.90
20700;DHT22;10511;51.232;9.420;2023-08-06T14:33:22;17.90;99.90
20700;DHT22;10511;51.232;9.420;2023-08-06T14:35:50;17.90;99.90
20700;DHT22;10511;51.232;9.420;2023-08-06T14:38:17;18.00;99.90
20700;DHT22;10511;51.232;9.420;2023-08-06T14:40:44;18.00;99.90
20700;DHT22;10511;51.232;9.420;2023-08-06T14:43:11;17.80;99.90
20700;DHT22;10511;51.232;9.420;2023-08-06T14:45:38;17.70;99.90
20700;DHT22;10511;51.232;9.420;2023-08-06T14:48:06;17.60;99.90
20700;DHT22;10511;51.232;9.420;2023-08-06T14:50:33;17.70;99.90
20700;DHT22;10511;51.232;9.420;2023-08-06T14:53:01;17.70;99.90
20700;DHT22;10511;51.232;9.420;2023-08-06T14:55:30;17.70;99.90
20700;DHT22;10511;51.232;9.420;2023-08-06T14:57:57;17.60;99.90
20700;DHT22;10511;51.232;9.420;2023-08-06T15:00:24;17.60;99.90
20700;DHT22;10511;51.232;9.420;2023-08-06T15:02:51;17.60;99.90
20700;DHT22;10511;51.232;9.420;2023-08-06T15:05:17;17.60;99.90
20700;DHT22;10511;51.232;9.420;2023-08-06T15:07:44;17.60;99.90
20700;DHT22;10511;51.232;9.420;2023-08-06T15:10:14;17.60;99.90
20700;DHT22;10511;51.232;9.420;2023-08-06T15:12:41;17.50;99.90
20700;DHT22;10511;51.232;9.420;2023-08-06T15:15:08;17.50;99.90
20700;DHT22;10511;51.232;9.420;2023-08-06T15:17:36;17.40;99.90
20700;DHT22;10511;51.232;9.420;2023-08-06T15:20:04;17.30;99.90
20700;DHT22;10511;51.232;9.420;2023-08-06T15:22:31;17.20;99.90
20700;DHT22;10511;51.232;9.420;2023-08-06T15:24:59;17.30;99.90
20700;DHT22;10511;51.232;9.420;2023-08-06T15:27:27;17.30;99.90
20700;DHT22;10511;51.232;9.420;2023-08-06T15:30:00;17.40;99.90
20700;DHT22;10511;51.232;9.420;2023-08-06T15:32:27;17.50;99.90
20700;DHT22;10511;51.232;9.420;2023-08-06T15:34:54;17.50;99.90